Jefferson City, TN

11:17 PM EST on January 26, 2015 (GMT -0500)
Camden Village | Change Station
CLOSE
Current Station
Personal Weather Station
Location: Jefferson City, TN
Elevation: 1391 ft
Nearby Weather Stations
Active Advisory: Special Statement

Elev 1391 ft 36.12 °N, 83.42 °W | Updated 41 seconds ago

Overcast
Overcast
29.8 °F
Feels Like 30 °F
N
0.0
Wind Variable Wind from West
Gusts 0.0 mph

Today
High -- | Low -- °F
--% Chance of Precip.
Yesterday
High -- | Low -- °F
Precip. -- in
7:38 AM 5:53 PM
Waxing Crescent, 50% visible
Pressure 29.92 in
Visibility 10.0 miles
Clouds Overcast 1900 ft
Windchill 30 °F
Dew Point 24 °F
Humidity 78%
Rainfall 0.09 in
Snow Depth Not available.
UV 0 out of 12
Pollen .30 out of 12
Air Quality Not available.
Flu Activity Not available.
METAR K0VG 270355Z AUTO 25005KT 10SM OVC019 M02/M04 A2992 RMK AO2

More Conditions Fewer Conditions

Pressure 29.92 in
Visibility 10.0 miles
Clouds Overcast 1900 ft
Windchill 30 °F
Dew Point 24 °F
Humidity 78%
Rainfall 0.09 in
Snow Depth Not available.
UV 0 out of 12
Pollen .30 out of 12
Air Quality Not available.
Flu Activity Not available.
METAR K0VG 270355Z AUTO 25005KT 10SM OVC019 M02/M04 A2992 RMK AO2

More Conditions Fewer Conditions

10-Day Weather Forecast

Almanac

Astronomy

Jan. 26, 2015 Rise Set
Actual Time
Civil Twilight
Nautical Twilight
Astronomical Twilight
Moon
Length of Visible Light
Length of Day
Tomorrow will be .
, % of the Moon is Illuminated

Today's Extremes

State Highs State Lows

Community

WunderPhotos

Upload Photos

1,790,520 photos uploaded!

WunderBlogs® & News

Nearby

Air Quality

  Air Quality AQ Index Pollutant
Not available.

Snow Depth

Station Depth Elevation

Earthquake Activity

City Distance Mag. Time & Date
Minimum magnitude displayed is 2.5.

Coastal Water Temperatures

Place Temperature

Nearby Weather Stations